Bryan's Hourly Summary for Tuesday, May 15, 2018
Hour Temp
(f)
RH
(%)
Solar Rad.
(MJ/m2)
Rainfall
(in)
Wind
(mph)
5/15/2018 12:00 AM 77 59 0 0 4.99
5/15/2018 1:00 AM 75 68 0 0 5.38
5/15/2018 2:00 AM 73 75 0 0 5.27
5/15/2018 3:00 AM 72 82 0 0 5.21
5/15/2018 4:00 AM 72 87 0 0 4.28
5/15/2018 5:00 AM 70 90 0 0 4.11
5/15/2018 6:00 AM 70 92 0 0 1.41
5/15/2018 7:00 AM 69 93 0.02 0 0.12
5/15/2018 8:00 AM 70 94 0.25 0 0.05
5/15/2018 9:00 AM 72 87 0.76 0 1.12
5/15/2018 10:00 AM 75 74 1.42 0 2.67
5/15/2018 11:00 AM 78 65 2.7 0 3.79
5/15/2018 12:00 PM 80 57 3.11 0 3.73
5/15/2018 1:00 PM 83 48 3.5 0 3.26
5/15/2018 2:00 PM 85 39 3.52 0 3.27
5/15/2018 3:00 PM 87 37 3.4 0 3.59
5/15/2018 4:00 PM 88 34 2.87 0 4.07
5/15/2018 5:00 PM 88 32 2.54 0 4.69
5/15/2018 6:00 PM 87 34 0.92 0 4.28
5/15/2018 7:00 PM 84 37 0.18 0 1.64
5/15/2018 8:00 PM 82 44 0.05 0 0.86
5/15/2018 9:00 PM 81 44 0 0 1.18
5/15/2018 10:00 PM 79 49 0 0 0.04
5/15/2018 11:00 PM 77 54 0 0 1.08
Data Summary 78 61 25.24 0.00 2.92